Time;durP1;ratioP1;P1;durP2;ratioP2;P2;SDS_P1;SDS_P2;PMS_P1;PMS_P2;Temp;Humidity;BMP_temperature;BMP_pressure;BME280_temperature;BME280_humidity;BME280_pressure;Samples;Min_cycle;Max_cycle;Signal;HPM_P1;HPM_P2
2021/01/24 00:01:37;;;;;;;;;;;;;;;4.30;72.72;96192.58;1631614;87;22133;-90
2021/01/24 00:04:25;;;;;;;;;;;;;;;4.37;72.76;96191.94;1631146;88;26044;-90
2021/01/24 00:07:11;;;;;;;;;;;;;;;4.39;72.81;96179.70;1632039;87;24596;-89
2021/01/24 00:09:57;;;;;;;;;;;;;;;4.40;72.86;96179.23;1631818;87;20554;-89
2021/01/24 00:12:43;;;;;;;;;;;;;;;4.48;72.90;96183.30;1632065;87;25074;-89
2021/01/24 00:15:29;;;;;;;;;;;;;;;4.52;72.93;96182.95;1630664;87;22162;-88
2021/01/24 00:18:15;;;;;;;;;;;;;;;4.52;72.97;96192.02;1631529;87;26241;-88
2021/01/24 00:21:01;;;;;;;;;;;;;;;4.40;72.99;96194.30;1631669;88;25486;-88
2021/01/24 00:23:50;;;;;;;;;;;;;;;4.30;73.02;96197.29;1631162;88;20551;-85
2021/01/24 00:26:36;;;;;;;;;;;;;;;4.23;73.01;96197.89;1631598;87;24918;-86
2021/01/24 00:29:25;;;;;;;;;;;;;;;4.07;73.04;96192.66;1632548;86;22993;-85
2021/01/24 00:32:11;;;;;;;;;;;;;;;3.93;73.04;96181.27;1631594;87;26288;-90
2021/01/24 00:34:59;;;;;;;;;;;;;;;3.84;73.04;96174.23;1631498;87;20196;-89
2021/01/24 00:37:50;;;;;;;;;;;;;;;3.74;73.08;96169.45;1631645;87;20783;-88
2021/01/24 00:43:12;;;;;;;;;;;;;;;3.60;73.16;96163.25;1631645;88;22091;-88
2021/01/24 00:45:59;;;;;;;;;;;;;;;3.57;73.20;96158.30;1630506;87;26211;-88
2021/01/24 00:48:47;;;;;;;;;;;;;;;3.67;73.22;96168.27;1629109;87;24594;-88
2021/01/24 00:51:35;;;;;;;;;;;;;;;3.77;73.30;96157.08;1609267;87;20390;-88
2021/01/24 00:54:24;;;;;;;;;;;;;;;3.84;73.39;96163.06;1634354;87;24882;-87
2021/01/24 00:57:09;;;;;;;;;;;;;;;3.86;73.50;96159.90;1632661;87;22206;-87
2021/01/24 00:59:55;;;;;;;;;;;;;;;3.69;73.56;96143.13;1633823;87;26142;-86
2021/01/24 01:02:41;;;;;;;;;;;;;;;3.56;73.63;96143.72;1634146;87;25495;-89
2021/01/24 01:05:27;;;;;;;;;;;;;;;3.53;73.64;96147.39;1634012;86;20290;-88
2021/01/24 01:08:13;;;;;;;;;;;;;;;3.50;73.70;96145.03;1632863;87;25210;-87
2021/01/24 01:10:59;;;;;;;;;;;;;;;3.46;73.76;96150.56;1633679;86;22055;-87
2021/01/24 01:13:45;;;;;;;;;;;;;;;3.40;73.81;96144.58;1634231;87;26144;-88
2021/01/24 01:16:31;;;;;;;;;;;;;;;3.36;73.88;96137.07;1634666;87;23900;-88
2021/01/24 01:19:17;;;;;;;;;;;;;;;3.31;73.92;96130.61;1634757;87;20299;-85
2021/01/24 01:22:05;;;;;;;;;;;;;;;3.30;73.98;96135.42;1633406;87;24919;-88
2021/01/24 01:24:51;;;;;;;;;;;;;;;3.27;74.05;96124.84;1632506;86;22245;-85
2021/01/24 01:27:39;;;;;;;;;;;;;;;3.26;74.12;96123.69;1634178;86;26140;-88
2021/01/24 01:30:26;;;;;;;;;;;;;;;3.23;74.17;96119.56;1633591;86;24834;-91
2021/01/24 01:33:12;;;;;;;;;;;;;;;3.18;74.25;96113.94;1633244;87;20280;-90
2021/01/24 01:36:01;;;;;;;;;;;;;;;3.12;74.30;96112.29;1634638;87;25778;-90
2021/01/24 01:38:47;;;;;;;;;;;;;;;3.11;74.36;96106.80;1632787;87;22194;-84
2021/01/24 01:41:33;;;;;;;;;;;;;;;3.08;74.45;96104.42;1634549;86;26145;-88
2021/01/24 01:44:19;;;;;;;;;;;;;;;3.05;74.51;96095.64;1633068;87;24637;-88
2021/01/24 01:47:05;;;;;;;;;;;;;;;3.05;74.58;96099.52;1634217;87;20670;-87
2021/01/24 01:49:51;;;;;;;;;;;;;;;3.09;74.63;96098.33;1633696;87;24709;-90
2021/01/24 01:52:37;;;;;;;;;;;;;;;3.11;74.70;96093.38;1598842;88;22288;-84
2021/01/24 01:55:23;;;;;;;;;;;;;;;3.09;74.80;96086.70;1598686;88;27059;-84
2021/01/24 01:58:09;;;;;;;;;;;;;;;3.10;74.86;96092.22;1561443;90;23976;-90
2021/01/24 02:00:55;;;;;;;;;;;;;;;3.10;74.91;96087.06;1560972;90;20697;-87
2021/01/24 02:03:41;;;;;;;;;;;;;;;3.12;74.99;96087.73;1597633;89;25001;-87
2021/01/24 02:06:08;;;;;;;;;;;;;;;;;;1565171;90;22956;-87
2021/01/24 02:08:55;;;;;;;;;;;;;;;3.05;75.12;96079.67;1587480;89;26202;-87
2021/01/24 02:11:40;;;;;;;;;;;;;;;3.01;75.16;96076.13;1597388;89;24639;-87
2021/01/24 02:14:27;;;;;;;;;;;;;;;3.03;75.22;96071.20;1598261;88;20282;-87
2021/01/24 02:17:17;;;;;;;;;;;;;;;2.99;75.28;96071.56;1598096;89;24983;-88
2021/01/24 02:20:01;;;;;;;;;;;;;;;2.98;75.33;96071.20;1599496;87;22043;-88
2021/01/24 02:22:47;;;;;;;;;;;;;;;2.95;75.40;96061.45;1597823;88;26188;-85
2021/01/24 02:25:35;;;;;;;;;;;;;;;2.88;75.48;96062.88;1598111;89;24896;-85
2021/01/24 02:28:22;;;;;;;;;;;;;;;2.86;75.54;96058.77;1597031;89;20278;-84
2021/01/24 02:31:08;;;;;;;;;;;;;;;2.83;75.57;96057.72;1596735;89;25002;-89
2021/01/24 02:33:54;;;;;;;;;;;;;;;2.79;75.64;96052.42;1594774;88;22192;-90
2021/01/24 02:36:41;;;;;;;;;;;;;;;2.76;75.70;96053.95;1565024;90;27506;-90
2021/01/24 02:39:27;;;;;;;;;;;;;;;2.74;75.77;96056.65;1548162;90;25518;-89
2021/01/24 02:42:12;;;;;;;;;;;;;;;2.73;75.85;96055.47;1589031;89;20330;-89
2021/01/24 02:44:59;;;;;;;;;;;;;;;2.71;75.92;96050.91;1589585;89;24858;-87
2021/01/24 02:47:44;;;;;;;;;;;;;;;2.73;75.97;96049.83;1588670;90;22176;-88
2021/01/24 02:50:31;;;;;;;;;;;;;;;2.77;76.03;96055.14;1590983;88;26167;-88
2021/01/24 02:53:20;;;;;;;;;;;;;;;2.76;76.10;96041.88;1618515;88;24941;-88
2021/01/24 02:56:06;;;;;;;;;;;;;;;2.69;76.17;96035.52;1618143;88;20278;-90
2021/01/24 02:58:52;;;;;;;;;;;;;;;2.66;76.22;96038.83;1620166;87;24909;-88
2021/01/24 03:01:38;;;;;;;;;;;;;;;2.65;76.26;96033.30;1619003;88;23101;-85
2021/01/24 03:04:26;;;;;;;;;;;;;;;2.58;76.33;96032.94;1618710;87;26159;-90
2021/01/24 03:07:12;;;;;;;;;;;;;;;2.56;76.36;96026.27;1618427;87;24647;-90
2021/01/24 03:09:58;;;;;;;;;;;;;;;2.51;76.43;96020.14;1619395;88;20402;-87
2021/01/24 03:12:44;;;;;;;;;;;;;;;2.48;76.48;96003.14;1618486;88;25661;-85
2021/01/24 03:15:30;;;;;;;;;;;;;;;2.49;76.52;96005.26;1620417;88;22137;-85
2021/01/24 03:18:16;;;;;;;;;;;;;;;2.47;76.55;96008.42;1620911;88;26198;-85
2021/01/24 03:21:04;;;;;;;;;;;;;;;2.46;76.60;96005.48;1619057;88;24659;-90
2021/01/24 03:23:51;;;;;;;;;;;;;;;2.42;76.66;96011.35;1619822;88;20308;-91
2021/01/24 03:26:37;;;;;;;;;;;;;;;2.38;76.73;96004.79;1620783;88;24987;-88
2021/01/24 03:29:23;;;;;;;;;;;;;;;2.37;76.77;96006.19;1618096;88;22040;-88
2021/01/24 03:32:10;;;;;;;;;;;;;;;2.37;76.81;96008.77;1618613;88;26137;-89
2021/01/24 03:34:56;;;;;;;;;;;;;;;2.39;76.86;96001.28;1620024;88;24656;-90
2021/01/24 03:37:45;;;;;;;;;;;;;;;2.40;76.93;95999.02;1622200;88;20296;-88
2021/01/24 03:40:32;;;;;;;;;;;;;;;2.45;76.98;95999.98;1619677;88;24911;-85
2021/01/24 03:43:18;;;;;;;;;;;;;;;2.47;77.02;95993.75;1621560;88;22231;-90
2021/01/24 03:46:04;;;;;;;;;;;;;;;2.51;77.08;95993.03;1620764;88;26107;-89
2021/01/24 03:48:51;;;;;;;;;;;;;;;2.52;77.14;95985.19;1618831;88;25595;-89
2021/01/24 03:51:37;;;;;;;;;;;;;;;2.51;77.20;95976.26;1618785;86;20286;-88
2021/01/24 03:54:23;;;;;;;;;;;;;;;2.50;77.24;95972.06;1620883;87;25158;-88
2021/01/24 03:57:09;;;;;;;;;;;;;;;2.44;77.31;95967.37;1619535;88;22190;-90
2021/01/24 03:59:55;;;;;;;;;;;;;;;2.39;77.35;95966.44;1619662;88;26119;-89
2021/01/24 04:02:41;;;;;;;;;;;;;;;2.34;77.41;95959.52;1619990;88;24625;-87
2021/01/24 04:05:27;;;;;;;;;;;;;;;2.33;77.44;95966.08;1619829;88;20389;-89
2021/01/24 04:08:14;;;;;;;;;;;;;;;2.39;77.47;95963.86;1620999;87;26047;-89
2021/01/24 04:11:01;;;;;;;;;;;;;;;2.41;77.53;95963.72;1619468;88;22331;-87
2021/01/24 04:13:47;;;;;;;;;;;;;;;2.45;77.59;95956.11;1620855;88;26211;-88
2021/01/24 04:16:32;;;;;;;;;;;;;;;2.44;77.65;95950.12;1621052;87;24658;-85
2021/01/24 04:19:18;;;;;;;;;;;;;;;2.42;77.70;95936.97;1621660;87;20349;-85
2021/01/24 04:22:05;;;;;;;;;;;;;;;2.37;77.78;95927.48;1618769;88;25149;-85
2021/01/24 04:24:51;;;;;;;;;;;;;;;2.31;77.85;95917.63;1619638;88;22369;-88
2021/01/24 04:27:37;;;;;;;;;;;;;;;2.25;77.89;95910.35;1620146;88;27022;-90
2021/01/24 04:30:23;;;;;;;;;;;;;;;2.24;77.94;95906.13;1620550;88;24648;-90
2021/01/24 04:33:09;;;;;;;;;;;;;;;2.21;77.97;95906.38;1619577;88;20305;-88
2021/01/24 04:35:57;;;;;;;;;;;;;;;2.23;78.05;95915.66;1616767;88;24911;-84
2021/01/24 04:38:47;;;;;;;;;;;;;;;2.22;78.12;95922.21;1621444;87;22010;-84
2021/01/24 04:41:33;;;;;;;;;;;;;;;2.25;78.17;95922.78;1619754;88;26099;-84
2021/01/24 04:44:18;;;;;;;;;;;;;;;2.26;78.24;95916.69;1621675;88;24634;-88
2021/01/24 04:47:04;;;;;;;;;;;;;;;2.25;78.29;95905.19;1619213;88;20577;-88
2021/01/24 04:49:50;;;;;;;;;;;;;;;2.24;78.37;95901.78;1619451;87;24922;-88
2021/01/24 04:52:36;;;;;;;;;;;;;;;2.23;78.42;95898.88;1627110;87;22255;-89
2021/01/24 04:55:22;;;;;;;;;;;;;;;2.20;78.49;95903.44;1633931;87;26346;-87
2021/01/24 04:58:08;;;;;;;;;;;;;;;2.18;78.54;95907.91;1633644;87;25448;-87
2021/01/24 05:00:54;;;;;;;;;;;;;;;2.22;78.60;95902.39;1633407;87;20631;-87
2021/01/24 05:03:40;;;;;;;;;;;;;;;2.22;78.65;95904.16;1634084;87;24961;-89
2021/01/24 05:06:26;;;;;;;;;;;;;;;2.26;78.70;95899.09;1633800;86;22157;-89
2021/01/24 05:09:12;;;;;;;;;;;;;;;2.35;78.74;95904.83;1634422;87;27049;-87
2021/01/24 05:11:58;;;;;;;;;;;;;;;2.38;78.81;95898.16;1634600;86;24651;-87
2021/01/24 05:14:44;;;;;;;;;;;;;;;2.41;78.85;95901.30;1634043;87;20398;-87
2021/01/24 05:17:30;;;;;;;;;;;;;;;2.48;78.91;95900.36;1632228;87;25239;-88
2021/01/24 05:20:16;;;;;;;;;;;;;;;2.51;78.95;95897.06;1632741;87;23159;-84
2021/01/24 05:23:02;;;;;;;;;;;;;;;2.59;78.99;95896.47;1633329;87;26146;-84
2021/01/24 05:25:48;;;;;;;;;;;;;;;2.66;79.02;95891.19;1633249;86;25685;-84
2021/01/24 05:28:34;;;;;;;;;;;;;;;2.86;79.06;95903.33;1632835;87;20574;-89
2021/01/24 05:31:20;;;;;;;;;;;;;;;3.06;79.08;95912.52;1633920;87;25088;-88
2021/01/24 05:34:06;;;;;;;;;;;;;;;3.12;79.13;95934.82;1633959;87;22204;-88
2021/01/24 05:36:51;;;;;;;;;;;;;;;3.11;79.17;95941.42;1634899;87;27049;-84
2021/01/24 05:39:38;;;;;;;;;;;;;;;3.05;79.19;95946.61;1634008;87;24689;-85
2021/01/24 05:42:24;;;;;;;;;;;;;;;2.93;79.22;95952.74;1633738;87;20437;-86
2021/01/24 05:45:11;;;;;;;;;;;;;;;2.74;79.21;95960.28;1633878;87;25143;-88
2021/01/24 05:47:57;;;;;;;;;;;;;;;2.57;79.20;95970.63;1609539;87;21797;-88
2021/01/24 05:50:44;;;;;;;;;;;;;;;2.41;79.16;95974.86;1632673;87;26217;-88
2021/01/24 05:53:30;;;;;;;;;;;;;;;2.24;79.09;95984.35;1605252;87;24688;-88
2021/01/24 05:56:16;;;;;;;;;;;;;;;2.10;79.04;95994.91;1597730;89;20607;-88
2021/01/24 05:59:02;;;;;;;;;;;;;;;1.96;79.02;95997.70;1596962;89;24879;-87
2021/01/24 06:01:49;;;;;;;;;;;;;;;1.85;78.98;96001.55;1598203;89;22147;-88
2021/01/24 06:04:36;;;;;;;;;;;;;;;1.80;78.96;95996.70;1598064;89;26992;-89
2021/01/24 06:07:09;;;;;;;;;;;;;;;1.76;78.94;96009.48;1597062;89;24625;-89
2021/01/24 06:09:56;;;;;;;;;;;;;;;1.75;78.93;96016.03;1598374;89;20539;-86
2021/01/24 06:12:41;;;;;;;;;;;;;;;1.69;78.92;96011.68;1598581;89;25970;-86
2021/01/24 06:15:27;;;;;;;;;;;;;;;1.70;78.93;96015.08;1597904;89;22165;-89
2021/01/24 06:18:14;;;;;;;;;;;;;;;1.70;78.92;96013.79;1597522;88;26204;-86
2021/01/24 06:21:00;;;;;;;;;;;;;;;1.74;78.94;96014.41;1599165;89;25609;-87
2021/01/24 06:23:48;;;;;;;;;;;;;;;1.76;78.95;96022.37;1597394;89;20271;-87
2021/01/24 06:26:34;;;;;;;;;;;;;;;1.79;78.98;96027.31;1597820;89;25993;-90
2021/01/24 06:29:20;;;;;;;;;;;;;;;1.85;78.98;96032.49;1597989;89;22145;-90
2021/01/24 06:32:06;;;;;;;;;;;;;;;1.88;79.01;96036.95;1597670;89;26324;-90
2021/01/24 06:34:52;;;;;;;;;;;;;;;1.92;79.02;96037.06;1598034;88;24856;-90
2021/01/24 06:37:38;;;;;;;;;;;;;;;1.93;79.06;96042.59;1598127;89;20329;-90
2021/01/24 06:40:24;;;;;;;;;;;;;;;1.92;79.09;96040.94;1595742;89;24891;-87
2021/01/24 06:43:12;;;;;;;;;;;;;;;1.93;79.10;96041.30;1597485;89;22182;-86
2021/01/24 06:46:00;;;;;;;;;;;;;;;1.89;79.09;96045.05;1597567;89;27088;-86
2021/01/24 06:48:45;;;;;;;;;;;;;;;1.87;79.09;96049.94;1596808;89;24723;-90
2021/01/24 06:51:33;;;;;;;;;;;;;;;1.89;79.11;96060.98;1597985;89;20538;-91
2021/01/24 06:54:18;;;;;;;;;;;;;;;1.87;79.12;96064.95;1619663;87;24972;-89
2021/01/24 06:57:09;;;;;;;;;;;;;;;1.84;79.14;96065.66;1618618;88;22153;-89
2021/01/24 06:59:55;;;;;;;;;;;;;;;1.82;79.13;96076.07;1619820;88;27037;-86
2021/01/24 07:02:42;;;;;;;;;;;;;;;1.82;79.12;96083.80;1617736;88;24602;-86
2021/01/24 07:05:28;;;;;;;;;;;;;;;1.83;79.13;96079.02;1620670;87;20555;-89
2021/01/24 07:11:08;;;;;;;;;;;;;;;1.79;79.16;96086.62;1651287;85;22186;-86
2021/01/24 07:13:54;;;;;;;;;;;;;;;1.80;79.16;96089.53;1667329;85;26403;-89
2021/01/24 07:16:41;;;;;;;;;;;;;;;1.79;79.17;96094.36;1665524;85;24589;-89
2021/01/24 07:19:28;;;;;;;;;;;;;;;1.80;79.19;96104.20;1663901;85;20276;-89
2021/01/24 07:22:02;;;;;;;;;;;;;;;1.78;79.20;96096.58;1669907;85;25074;-86
2021/01/24 07:24:48;;;;;;;;;;;;;;;1.78;79.19;96094.45;1673289;84;22170;-86
2021/01/24 07:27:35;;;;;;;;;;;;;;;1.78;79.20;96100.91;1662481;85;26375;-86
2021/01/24 07:30:20;;;;;;;;;;;;;;;1.79;79.25;96099.52;1666662;85;25114;-89
2021/01/24 07:33:06;;;;;;;;;;;;;;;1.84;79.23;96098.71;1661874;85;20421;-89
2021/01/24 07:35:56;;;;;;;;;;;;;;;1.89;79.25;96104.81;1653129;85;24167;-86
2021/01/24 07:38:42;;;;;;;;;;;;;;;1.91;79.27;96112.78;1667650;85;22223;-89
2021/01/24 07:41:27;;;;;;;;;;;;;;;1.93;79.28;96103.66;1673003;85;26157;-86
2021/01/24 07:44:13;;;;;;;;;;;;;;;1.90;79.30;96093.58;1664752;85;24590;-86
2021/01/24 07:47:03;;;;;;;;;;;;;;;1.93;79.31;96103.66;1665537;85;20254;-92
2021/01/24 07:49:50;;;;;;;;;;;;;;;1.95;79.33;96101.34;1666888;85;25192;-89
2021/01/24 07:52:38;;;;;;;;;;;;;;;2.01;79.33;96100.89;1662868;85;22050;-87
2021/01/24 07:55:27;;;;;;;;;;;;;;;2.09;79.36;96097.27;1661942;85;27117;-90
2021/01/24 07:58:13;;;;;;;;;;;;;;;2.15;79.36;96090.00;1673222;85;24689;-90
2021/01/24 08:00:59;;;;;;;;;;;;;;;2.19;79.38;96090.95;1660199;85;20288;-90
2021/01/24 08:03:45;;;;;;;;;;;;;;;2.19;79.41;96093.53;1667389;85;24931;-89
2021/01/24 08:06:31;;;;;;;;;;;;;;;2.25;79.39;96096.13;1667793;85;22069;-90
2021/01/24 08:09:04;;;;;;;;;;;;;;;2.30;79.40;96105.64;1661778;84;26290;-90
2021/01/24 08:11:50;;;;;;;;;;;;;;;2.38;79.43;96114.47;1665198;84;24584;-87
2021/01/24 08:14:36;;;;;;;;;;;;;;;2.46;79.42;96110.02;1658631;85;20407;-87
2021/01/24 08:17:22;;;;;;;;;;;;;;;2.56;79.44;96120.50;1665406;85;24867;-89
2021/01/24 08:20:08;;;;;;;;;;;;;;;2.61;79.44;96124.84;1661570;85;22151;-89
2021/01/24 08:22:56;;;;;;;;;;;;;;;2.67;79.46;96132.13;1663068;85;26298;-89
2021/01/24 08:25:42;;;;;;;;;;;;;;;2.68;79.46;96142.33;1662816;85;24721;-89
2021/01/24 08:28:17;;;;;;;;;;;;;;;2.65;79.47;96146.44;1671713;85;20284;-89
2021/01/24 08:31:05;;;;;;;;;;;;;;;2.59;79.47;96155.11;1663072;85;24849;-91
2021/01/24 08:33:52;;;;;;;;;;;;;;;2.51;79.45;96154.38;1669596;85;22391;-92
2021/01/24 08:36:39;;;;;;;;;;;;;;;2.45;79.43;96166.00;1667186;85;26335;-89
2021/01/24 08:39:24;;;;;;;;;;;;;;;2.39;79.40;96166.45;1670136;85;24730;-90
2021/01/24 08:42:10;;;;;;;;;;;;;;;2.34;79.37;96179.34;1663099;85;20344;-89
2021/01/24 08:44:56;;;;;;;;;;;;;;;2.33;79.34;96185.42;1665186;85;24959;-89
2021/01/24 08:47:42;;;;;;;;;;;;;;;2.33;79.32;96177.22;1666156;85;22353;-91
2021/01/24 08:50:28;;;;;;;;;;;;;;;2.31;79.31;96184.24;1669226;85;26182;-87
2021/01/24 08:53:14;;;;;;;;;;;;;;;2.29;79.29;96181.44;1663006;85;24468;-90
2021/01/24 08:56:00;;;;;;;;;;;;;;;2.29;79.31;96179.64;1663607;85;20335;-87
2021/01/24 08:58:46;;;;;;;;;;;;;;;2.29;79.31;96180.14;1663489;85;24891;-87
2021/01/24 09:01:32;;;;;;;;;;;;;;;2.27;79.30;96179.42;1654765;85;22126;-87
2021/01/24 09:04:22;;;;;;;;;;;;;;;2.27;79.31;96183.29;1664792;85;26204;-90
2021/01/24 09:07:07;;;;;;;;;;;;;;;2.26;79.31;96184.22;1659035;85;24586;-90
2021/01/24 09:09:54;;;;;;;;;;;;;;;2.29;79.31;96180.14;1665337;84;20400;-87
2021/01/24 09:12:42;;;;;;;;;;;;;;;2.35;79.33;96177.09;1665646;85;25039;-87
2021/01/24 09:15:28;;;;;;;;;;;;;;;2.44;79.32;96175.97;1662468;85;22220;-87
2021/01/24 09:18:14;;;;;;;;;;;;;;;2.53;79.35;96175.75;1660363;85;26058;-91
2021/01/24 09:21:00;;;;;;;;;;;;;;;2.60;79.37;96175.66;1667809;85;23827;-88
2021/01/24 09:23:34;;;;;;;;;;;;;;;2.65;79.40;96181.30;1669258;85;20330;-93
2021/01/24 09:26:21;;;;;;;;;;;;;;;2.73;79.44;96178.95;1673393;85;24818;-92
2021/01/24 09:29:08;;;;;;;;;;;;;;;2.83;79.45;96183.81;1665658;85;22087;-90
2021/01/24 09:31:54;;;;;;;;;;;;;;;2.89;79.47;96176.86;1670112;85;26109;-90
2021/01/24 09:34:42;;;;;;;;;;;;;;;2.98;79.48;96172.78;1669384;85;25490;-91
2021/01/24 09:37:32;;;;;;;;;;;;;;;2.98;79.51;96176.66;1667933;85;20493;-87
2021/01/24 09:40:18;;;;;;;;;;;;;;;3.02;79.50;96170.78;1664550;85;24910;-87
2021/01/24 09:43:08;;;;;;;;;;;;;;;3.07;79.51;96173.83;1664913;85;22182;-90
2021/01/24 09:45:54;;;;;;;;;;;;;;;3.13;79.50;96172.08;1665886;85;25342;-89
2021/01/24 09:48:39;;;;;;;;;;;;;;;3.18;79.51;96175.13;1662220;85;24673;-89
2021/01/24 09:51:26;;;;;;;;;;;;;;;3.20;79.52;96178.44;1662494;85;20378;-89
2021/01/24 09:54:14;;;;;;;;;;;;;;;3.19;79.50;96168.56;1660660;85;24904;-91
2021/01/24 09:57:00;;;;;;;;;;;;;;;3.27;79.46;96171.86;1662083;85;22192;-89
2021/01/24 09:59:46;;;;;;;;;;;;;;;3.33;79.48;96171.36;1663678;85;26158;-89
2021/01/24 10:02:33;;;;;;;;;;;;;;;3.38;79.46;96167.16;1660107;85;38506;-89
2021/01/24 10:05:20;;;;;;;;;;;;;;;3.39;79.48;96161.84;1664139;85;20349;-90
2021/01/24 10:08:06;;;;;;;;;;;;;;;3.33;79.48;96170.07;1665949;85;25384;-90
2021/01/24 10:10:52;;;;;;;;;;;;;;;3.30;79.46;96169.03;1662590;85;22952;-90
2021/01/24 10:13:38;;;;;;;;;;;;;;;3.26;79.42;96167.63;1661792;85;26142;-87
2021/01/24 10:16:24;;;;;;;;;;;;;;;3.24;79.41;96163.03;1669825;85;24408;-90
2021/01/24 10:19:12;;;;;;;;;;;;;;;3.26;79.40;96167.16;1667162;85;20539;-87
2021/01/24 10:21:59;;;;;;;;;;;;;;;3.30;79.37;96162.09;1667883;85;25092;-87
2021/01/24 10:24:45;;;;;;;;;;;;;;;3.41;79.39;96169.02;1672839;85;22351;-90
2021/01/24 10:27:30;;;;;;;;;;;;;;;3.51;79.41;96168.66;1673355;85;26197;-87
2021/01/24 10:30:17;;;;;;;;;;;;;;;3.58;79.45;96163.83;1672786;85;24649;-89
2021/01/24 10:33:03;;;;;;;;;;;;;;;3.69;79.46;96167.23;1670937;84;20369;-89
2021/01/24 10:35:50;;;;;;;;;;;;;;;3.75;79.50;96166.75;1668040;85;25053;-87
2021/01/24 10:38:39;;;;;;;;;;;;;;;3.77;79.52;96170.48;1673888;85;22380;-88
2021/01/24 10:41:27;;;;;;;;;;;;;;;3.74;79.53;96167.69;1672285;85;26146;-88
2021/01/24 10:44:14;;;;;;;;;;;;;;;3.73;79.52;96169.09;1670602;85;25019;-88
2021/01/24 10:47:00;;;;;;;;;;;;;;;3.76;79.50;96169.66;1668964;84;20492;-88
2021/01/24 10:49:47;;;;;;;;;;;;;;;3.81;79.50;96169.32;1668969;85;24929;-89
2021/01/24 10:52:33;;;;;;;;;;;;;;;3.79;79.49;96167.31;1670283;85;22145;-89
2021/01/24 10:55:18;;;;;;;;;;;;;;;3.75;79.46;96164.16;1674524;85;26133;-88
2021/01/24 10:58:04;;;;;;;;;;;;;;;3.73;79.40;96180.26;1673120;85;24701;-88
2021/01/24 11:00:50;;;;;;;;;;;;;;;3.76;79.34;96185.17;1665953;85;20277;-88
2021/01/24 11:03:36;;;;;;;;;;;;;;;3.76;79.31;96176.63;1673801;85;24746;-89
2021/01/24 11:06:22;;;;;;;;;;;;;;;3.78;79.26;96180.72;1673042;85;22154;-88
2021/01/24 11:09:09;;;;;;;;;;;;;;;3.84;79.21;96182.00;1673894;85;26194;-88
2021/01/24 11:11:55;;;;;;;;;;;;;;;3.92;79.19;96190.46;1677673;84;24631;-87
2021/01/24 11:14:42;;;;;;;;;;;;;;;3.97;79.15;96194.80;1667001;85;20282;-89
2021/01/24 11:17:30;;;;;;;;;;;;;;;3.99;79.12;96196.77;1667280;85;24835;-89
2021/01/24 11:20:18;;;;;;;;;;;;;;;4.03;79.08;96195.14;1669111;85;22221;-89
2021/01/24 11:23:12;;;;;;;;;;;;;;;4.06;79.03;96192.30;1666866;85;27181;-87
2021/01/24 11:25:59;;;;;;;;;;;;;;;4.09;78.98;96193.83;1666549;85;24515;-88
2021/01/24 11:28:47;;;;;;;;;;;;;;;4.06;78.92;96190.17;1646162;85;20417;-88
2021/01/24 11:31:36;;;;;;;;;;;;;;;4.05;78.85;96185.47;1667517;85;25903;-87
2021/01/24 11:34:22;;;;;;;;;;;;;;;4.04;78.77;96201.11;1665515;85;22165;-86
2021/01/24 11:37:08;;;;;;;;;;;;;;;4.03;78.67;96208.55;1675041;85;26392;-86
2021/01/24 11:39:54;;;;;;;;;;;;;;;4.04;78.56;96195.94;1669526;85;24585;-86
2021/01/24 11:42:40;;;;;;;;;;;;;;;4.03;78.44;96193.02;1671509;85;20355;-86
2021/01/24 11:45:26;;;;;;;;;;;;;;;4.04;78.35;96195.94;1667891;85;24911;-87
2021/01/24 11:48:12;;;;;;;;;;;;;;;4.03;78.23;96194.31;1677319;84;22417;-87
2021/01/24 11:50:58;;;;;;;;;;;;;;;4.06;78.12;96207.00;1662536;85;26145;-87
2021/01/24 11:53:43;;;;;;;;;;;;;;;4.09;78.01;96193.83;1671406;85;25486;-88
2021/01/24 11:56:30;;;;;;;;;;;;;;;4.10;77.91;96193.69;1672124;83;20448;-89
2021/01/24 11:59:16;;;;;;;;;;;;;;;4.11;77.78;96183.69;1661828;85;24986;-89
2021/01/24 12:02:05;;;;;;;;;;;;;;;4.16;77.67;96191.08;1665602;85;22096;-88
2021/01/24 12:04:51;;;;;;;;;;;;;;;4.19;77.55;96189.09;1668112;85;26299;-88
2021/01/24 12:07:37;;;;;;;;;;;;;;;4.23;77.45;96192.25;1671027;85;25542;-89
2021/01/24 12:10:23;;;;;;;;;;;;;;;4.26;77.33;96200.22;1670019;85;20312;-88
2021/01/24 12:13:13;;;;;;;;;;;;;;;4.26;77.20;96206.22;1674528;84;24905;-86
2021/01/24 12:16:00;;;;;;;;;;;;;;;4.17;77.05;96195.32;1672222;85;22119;-85
2021/01/24 12:18:48;;;;;;;;;;;;;;;4.26;76.90;96211.40;1667287;85;27086;-86
2021/01/24 12:21:34;;;;;;;;;;;;;;;4.26;76.72;96208.81;1667209;85;24650;-86
2021/01/24 12:24:20;;;;;;;;;;;;;;;4.27;76.54;96205.75;1678408;85;20300;-88
2021/01/24 12:27:06;;;;;;;;;;;;;;;4.33;76.40;96211.27;1674215;85;25240;-88
2021/01/24 12:29:51;;;;;;;;;;;;;;;4.34;76.28;96209.50;1666309;85;23306;-87
2021/01/24 12:32:40;;;;;;;;;;;;;;;4.30;76.10;96211.52;1680128;85;26304;-86
2021/01/24 12:35:26;;;;;;;;;;;;;;;4.28;75.96;96217.76;1667768;85;24706;-88
2021/01/24 12:38:12;;;;;;;;;;;;;;;4.24;75.81;96214.60;1669089;84;20318;-87
2021/01/24 12:40:59;;;;;;;;;;;;;;;4.27;75.66;96205.75;1678140;85;25727;-88
2021/01/24 12:43:45;;;;;;;;;;;;;;;4.35;75.51;96212.45;1675153;84;23060;-88
2021/01/24 12:46:31;;;;;;;;;;;;;;;4.30;75.34;96225.77;1669672;85;26111;-88
2021/01/24 12:48:59;;;;;;;;;;;;;;;;;;1669765;85;24643;-88
2021/01/24 12:51:45;;;;;;;;;;;;;;;4.24;74.98;96228.84;1668285;85;20528;-87
2021/01/24 12:54:31;;;;;;;;;;;;;;;4.29;74.83;96221.53;1667263;85;25445;-88
2021/01/24 12:57:20;;;;;;;;;;;;;;;4.29;74.71;96225.41;1668195;85;22146;-88
2021/01/24 13:00:06;;;;;;;;;;;;;;;4.32;74.60;96234.21;1664508;85;26326;-87
2021/01/24 13:02:53;;;;;;;;;;;;;;;4.24;74.42;96246.96;1676861;85;24634;-88
2021/01/24 13:05:39;;;;;;;;;;;;;;;4.26;74.27;96228.70;1665770;85;20337;-88
2021/01/24 13:08:26;;;;;;;;;;;;;;;4.21;74.15;96248.02;1670766;85;24909;-89
2021/01/24 13:11:12;;;;;;;;;;;;;;;4.14;74.00;96246.05;1671902;85;21554;-90
2021/01/24 13:13:58;;;;;;;;;;;;;;;4.09;73.87;96245.59;1664974;84;26302;-89
2021/01/24 13:16:47;;;;;;;;;;;;;;;4.07;73.77;96237.12;1669414;85;25481;-88
2021/01/24 13:19:34;;;;;;;;;;;;;;;4.00;73.67;96227.72;1671988;85;20383;-89
2021/01/24 13:22:19;;;;;;;;;;;;;;;3.97;73.58;96225.84;1665889;85;24774;-90
2021/01/24 13:25:05;;;;;;;;;;;;;;;3.95;73.51;96235.48;1672860;85;22144;-88
2021/01/24 13:27:52;;;;;;;;;;;;;;;3.90;73.44;96243.62;1670867;85;25360;-88
2021/01/24 13:30:41;;;;;;;;;;;;;;;3.84;73.36;96251.03;1676047;84;25549;-88
2021/01/24 13:33:27;;;;;;;;;;;;;;;3.78;73.31;96244.09;1669088;85;20337;-88
2021/01/24 13:36:13;;;;;;;;;;;;;;;3.75;73.23;96264.22;1678067;85;24886;-89
2021/01/24 13:38:59;;;;;;;;;;;;;;;3.73;73.22;96257.03;1677102;85;22158;-90
2021/01/24 13:41:50;;;;;;;;;;;;;;;3.66;73.16;96255.38;1674184;85;26158;-89
2021/01/24 13:44:36;;;;;;;;;;;;;;;3.63;73.14;96263.86;1671212;85;24699;-90
2021/01/24 13:47:26;;;;;;;;;;;;;;;3.59;73.08;96265.87;1670692;85;20292;-90
2021/01/24 13:50:12;;;;;;;;;;;;;;;3.66;73.06;96273.48;1671439;85;24990;-90
2021/01/24 13:52:58;;;;;;;;;;;;;;;3.70;73.05;96276.22;1676804;85;22129;-89
2021/01/24 13:55:46;;;;;;;;;;;;;;;3.76;73.06;96277.51;1666310;85;26358;-91
2021/01/24 13:58:33;;;;;;;;;;;;;;;3.83;73.07;96285.59;1665173;85;25606;-90
2021/01/24 14:01:18;;;;;;;;;;;;;;;3.86;73.05;96286.20;1671186;84;20392;-90
2021/01/24 14:04:05;;;;;;;;;;;;;;;3.84;73.05;96292.42;1675885;84;25079;-90
2021/01/24 14:06:52;;;;;;;;;;;;;;;3.76;73.00;96293.83;1672382;85;22173;-88
2021/01/24 14:09:39;;;;;;;;;;;;;;;3.73;72.96;96297.13;1674543;84;26105;-88
2021/01/24 14:12:25;;;;;;;;;;;;;;;3.69;72.91;96300.42;1675473;83;24627;-88
2021/01/24 14:15:11;;;;;;;;;;;;;;;3.64;72.84;96312.89;1675210;85;20413;-89
2021/01/24 14:18:00;;;;;;;;;;;;;;;3.61;72.77;96322.16;1669945;85;25139;-89
2021/01/24 14:20:51;;;;;;;;;;;;;;;3.60;72.76;96313.24;1667668;85;22142;-88
2021/01/24 14:23:37;;;;;;;;;;;;;;;3.58;72.72;96318.52;1671865;84;26178;-88
2021/01/24 14:26:23;;;;;;;;;;;;;;;3.54;72.69;96318.41;1669345;85;24638;-88
2021/01/24 14:29:09;;;;;;;;;;;;;;;3.48;72.67;96330.97;1669103;85;20350;-87
2021/01/24 14:31:55;;;;;;;;;;;;;;;3.39;72.61;96323.42;1672769;85;24962;-86
2021/01/24 14:34:41;;;;;;;;;;;;;;;3.35;72.58;96328.47;1673519;84;23002;-85
2021/01/24 14:37:31;;;;;;;;;;;;;;;3.31;72.55;96320.13;1669606;85;26147;-86
2021/01/24 14:40:20;;;;;;;;;;;;;;;3.28;72.54;96324.22;1646225;85;24564;-86
2021/01/24 14:43:12;;;;;;;;;;;;;;;3.26;72.51;96326.58;1653170;85;20379;-87